Terminal Aerodrome Forecast
Issued by NWS Charleston, WV

Current Version | Previous Version | Graphics & Text | Print | Product List | Glossary On
Versions: 1 2 3 4 5 6 7 8 9 10 11 12 13 14 15 16 17 18 19 20 21 22 23 24 25 26 27 28 29 30 31
311
FTUS41 KRLX 230900 AAA
TAFBKW
TAF AMD
KBKW 230900Z 2309/2406 29003KT P6SM OVC004
     FM231300 34004KT P6SM SCT014
     FM231500 24006KT P6SM SCT022
     FM231800 35007KT P6SM BKN040
     FM231900 35007KT P6SM VCTS BKN040CB
     FM232300 34005KT P6SM SCT080=

USA.gov is the U.S. government's official web portal to all federal, state and local government web resources and services.